Time;durP1;ratioP1;P1;durP2;ratioP2;P2;SDS_P1;SDS_P2;PMS_P1;PMS_P2;Temp;Humidity;BMP_temperature;BMP_pressure;BME280_temperature;BME280_humidity;BME280_pressure;Samples;Min_cycle;Max_cycle;Signal;HPM_P1;HPM_P2
2022/04/06 00:00:31;;;;;;;0.60;0.60;;;9.30;99.90;;;;;;5074385;28;20040;-63
2022/04/06 00:02:58;;;;;;;1.50;1.10;;;9.30;99.90;;;;;;5073927;28;20074;-63
2022/04/06 00:05:24;;;;;;;0.50;0.50;;;9.30;99.90;;;;;;5061125;28;20017;-63
2022/04/06 00:07:49;;;;;;;0.93;0.93;;;9.30;99.90;;;;;;5079690;28;20086;-63
2022/04/06 00:10:15;;;;;;;0.98;0.90;;;9.30;99.90;;;;;;5082824;28;20020;-63
2022/04/06 00:12:41;;;;;;;1.73;1.15;;;9.40;99.90;;;;;;5074197;28;20025;-63
2022/04/06 00:15:10;;;;;;;0.80;0.80;;;9.30;99.90;;;;;;5073609;28;20020;-63
2022/04/06 00:17:37;;;;;;;0.52;0.52;;;9.30;99.90;;;;;;5078637;28;20021;-63
2022/04/06 00:20:04;;;;;;;1.05;0.98;;;9.30;99.90;;;;;;5081096;28;20426;-63
2022/04/06 00:22:30;;;;;;;2.25;2.05;;;9.30;99.90;;;;;;5075056;28;20033;-63
2022/04/06 00:24:56;;;;;;;0.60;0.60;;;9.30;99.90;;;;;;5075162;28;20089;-63
2022/04/06 00:27:22;;;;;;;0.60;0.60;;;9.20;99.90;;;;;;5069468;28;20438;-63
2022/04/06 00:29:48;;;;;;;1.10;1.00;;;9.30;99.90;;;;;;5075529;28;20034;-63
2022/04/06 00:32:13;;;;;;;0.50;0.50;;;9.30;99.90;;;;;;5074998;28;20017;-63
2022/04/06 00:37:23;;;;;;;1.98;1.70;;;9.30;99.90;;;;;;5063627;28;20027;-63
2022/04/06 00:39:48;;;;;;;0.65;0.65;;;9.30;99.90;;;;;;5053749;28;20059;-63
2022/04/06 00:42:15;;;;;;;1.25;1.05;;;9.30;99.90;;;;;;5075853;28;20520;-63
2022/04/06 00:44:40;;;;;;;0.52;0.52;;;9.30;99.90;;;;;;5074125;28;20029;-63
2022/04/06 00:47:07;;;;;;;0.55;0.55;;;9.20;99.90;;;;;;5080071;28;20564;-63
2022/04/06 00:49:34;;;;;;;4.28;2.50;;;9.30;99.90;;;;;;5076431;28;20049;-63
2022/04/06 00:52:05;;;;;;;0.73;0.73;;;9.30;99.90;;;;;;5073806;28;20182;-63
2022/04/06 00:54:32;;;;;;;0.70;0.70;;;9.30;99.90;;;;;;5081874;28;20028;-63
2022/04/06 00:56:58;;;;;;;1.10;0.88;;;9.30;99.90;;;;;;5068878;28;20037;-63
2022/04/06 00:59:26;;;;;;;1.10;0.90;;;9.30;99.90;;;;;;5046523;28;20567;-63
2022/04/06 01:01:53;;;;;;;0.80;0.80;;;9.20;99.90;;;;;;5058520;28;20025;-63
2022/04/06 01:04:19;;;;;;;0.50;0.50;;;9.20;99.90;;;;;;5061026;28;20024;-63
2022/04/06 01:06:46;;;;;;;0.55;0.55;;;9.20;99.90;;;;;;5060656;28;20025;-63
2022/04/06 01:09:13;;;;;;;0.70;0.70;;;9.20;99.90;;;;;;5059649;28;20028;-63
2022/04/06 01:11:41;;;;;;;0.60;0.60;;;9.20;99.90;;;;;;5055965;28;20052;-63
2022/04/06 01:25:35;;;;;;;0.98;0.98;;;9.20;99.90;;;;;;5086460;28;20483;-60
2022/04/06 01:28:01;;;;;;;1.02;0.90;;;9.20;99.90;;;;;;5083837;28;20475;-60
2022/04/06 01:30:26;;;;;;;0.60;0.60;;;9.10;99.90;;;;;;5088101;28;20028;-60
2022/04/06 01:32:55;;;;;;;0.50;0.50;;;9.10;99.90;;;;;;5091675;28;20091;-60
2022/04/06 01:35:20;;;;;;;1.33;1.23;;;9.10;99.90;;;;;;5082987;28;20025;-60
2022/04/06 01:37:46;;;;;;;2.47;1.13;;;9.10;99.90;;;;;;5092406;28;20028;-60
2022/04/06 01:40:11;;;;;;;0.50;0.50;;;9.10;99.90;;;;;;5091747;28;20027;-60
2022/04/06 01:42:37;;;;;;;0.57;0.57;;;9.10;99.90;;;;;;5088829;28;20060;-60
2022/04/06 01:45:03;;;;;;;0.60;0.60;;;9.10;99.90;;;;;;5081745;28;20045;-60
2022/04/06 01:47:29;;;;;;;0.60;0.60;;;9.10;99.90;;;;;;5091617;28;20407;-60
2022/04/06 01:52:38;;;;;;;0.60;0.60;;;9.00;99.90;;;;;;5078578;28;20036;-60
2022/04/06 01:55:06;;;;;;;0.60;0.60;;;9.10;99.90;;;;;;5091302;28;20024;-60
2022/04/06 01:57:32;;;;;;;0.80;0.80;;;9.10;99.90;;;;;;5090021;28;20398;-60
2022/04/06 01:59:58;;;;;;;0.60;0.60;;;9.00;99.90;;;;;;5086717;28;20479;-60
2022/04/06 02:02:27;;;;;;;0.90;0.90;;;9.00;99.90;;;;;;5066134;28;20027;-60
2022/04/06 02:04:53;;;;;;;0.70;0.70;;;9.00;99.90;;;;;;5085264;28;20055;-60
2022/04/06 02:07:18;;;;;;;0.60;0.60;;;9.00;99.90;;;;;;5084402;28;20066;-60
2022/04/06 02:09:44;;;;;;;0.70;0.70;;;9.00;99.90;;;;;;5081077;28;20171;-60
2022/04/06 02:12:11;;;;;;;0.60;0.60;;;9.00;99.90;;;;;;5091287;28;20386;-60
2022/04/06 02:14:41;;;;;;;0.65;0.65;;;9.00;99.90;;;;;;5076431;28;20066;-60
2022/04/06 02:17:07;;;;;;;0.88;0.88;;;9.00;99.90;;;;;;5083951;28;20027;-60
2022/04/06 02:19:35;;;;;;;0.60;0.60;;;9.00;99.90;;;;;;5069182;28;20409;-60
2022/04/06 02:22:02;;;;;;;0.85;0.85;;;9.00;99.90;;;;;;5079918;28;20470;-60
2022/04/06 02:24:27;;;;;;;0.60;0.60;;;9.00;99.90;;;;;;5083128;28;20065;-60
2022/04/06 02:26:53;;;;;;;0.70;0.70;;;9.00;99.90;;;;;;5076881;28;20056;-60
2022/04/06 02:29:19;;;;;;;1.63;0.90;;;8.90;99.90;;;;;;5078005;28;20485;-60
2022/04/06 02:31:44;;;;;;;0.50;0.50;;;9.00;99.90;;;;;;5089392;28;20024;-60
2022/04/06 02:34:10;;;;;;;2.40;1.10;;;9.00;99.90;;;;;;5088595;28;20066;-60
2022/04/06 02:36:35;;;;;;;0.50;0.50;;;8.90;99.90;;;;;;5086578;28;20069;-60
2022/04/06 02:39:02;;;;;;;0.70;0.70;;;8.90;99.90;;;;;;5079786;28;20083;-60
2022/04/06 02:41:28;;;;;;;0.60;0.60;;;9.00;99.90;;;;;;5085447;28;20103;-60
2022/04/06 02:43:53;;;;;;;0.50;0.50;;;8.90;99.90;;;;;;5089726;28;20123;-60
2022/04/06 02:46:19;;;;;;;0.60;0.60;;;9.00;99.90;;;;;;5078825;28;20039;-60
2022/04/06 02:48:45;;;;;;;1.58;1.10;;;8.90;99.90;;;;;;5078468;28;20037;-60
2022/04/06 02:51:11;;;;;;;0.60;0.60;;;9.00;99.90;;;;;;5072365;28;20021;-60
2022/04/06 02:53:37;;;;;;;0.55;0.55;;;9.00;99.90;;;;;;5079097;28;20025;-60
2022/04/06 02:56:03;;;;;;;0.65;0.65;;;9.00;99.90;;;;;;5075984;28;20473;-60
2022/04/06 02:58:29;;;;;;;0.65;0.65;;;9.00;99.90;;;;;;5078174;28;20135;-60
2022/04/06 03:00:56;;;;;;;0.50;0.50;;;9.00;99.90;;;;;;5084465;28;20104;-60
2022/04/06 03:03:25;;;;;;;0.60;0.60;;;9.00;99.90;;;;;;5084803;28;20024;-60
2022/04/06 03:05:51;;;;;;;1.58;1.00;;;9.00;99.90;;;;;;5090417;28;20025;-60
2022/04/06 03:08:17;;;;;;;0.80;0.80;;;9.00;99.90;;;;;;5081100;28;20042;-60
2022/04/06 03:10:43;;;;;;;0.60;0.60;;;9.00;99.90;;;;;;5080496;28;20016;-60
2022/04/06 03:13:08;;;;;;;0.75;0.75;;;9.00;99.90;;;;;;5069752;28;20027;-60
2022/04/06 03:15:34;;;;;;;5.57;1.55;;;9.00;99.90;;;;;;5085607;28;20666;-60
2022/04/06 03:18:00;;;;;;;0.60;0.60;;;9.00;99.90;;;;;;5079307;28;20028;-60
2022/04/06 03:20:25;;;;;;;0.50;0.50;;;8.90;99.90;;;;;;5077393;28;20021;-60
2022/04/06 03:22:51;;;;;;;0.80;0.80;;;8.90;99.90;;;;;;5081049;28;20016;-60
2022/04/06 03:25:17;;;;;;;0.75;0.75;;;8.90;99.90;;;;;;5089380;28;20028;-60
2022/04/06 03:27:42;;;;;;;0.60;0.60;;;8.90;99.90;;;;;;5075409;28;20028;-60
2022/04/06 03:30:11;;;;;;;0.85;0.85;;;8.90;99.90;;;;;;5085647;28;20020;-60
2022/04/06 03:32:37;;;;;;;3.78;1.10;;;8.90;99.90;;;;;;5060703;28;20028;-60
2022/04/06 03:35:03;;;;;;;0.75;0.75;;;8.90;99.90;;;;;;5087471;28;20028;-60
2022/04/06 03:37:29;;;;;;;0.60;0.60;;;8.90;99.90;;;;;;5064345;28;20138;-60
2022/04/06 03:39:55;;;;;;;0.60;0.60;;;9.00;99.90;;;;;;5073364;28;20560;-60
2022/04/06 03:42:21;;;;;;;0.60;0.60;;;8.90;99.90;;;;;;5089561;28;20040;-60
2022/04/06 03:44:46;;;;;;;0.50;0.50;;;8.90;99.90;;;;;;5089264;28;20026;-60
2022/04/06 03:47:12;;;;;;;0.50;0.50;;;8.90;99.90;;;;;;5081856;28;20048;-60
2022/04/06 03:49:38;;;;;;;0.55;0.55;;;9.00;99.90;;;;;;5082677;28;20052;-60
2022/04/06 03:52:04;;;;;;;0.60;0.60;;;8.90;99.90;;;;;;5084151;28;20031;-60
2022/04/06 03:54:29;;;;;;;1.65;1.10;;;8.90;99.90;;;;;;5079882;28;20035;-60
2022/04/06 03:56:55;;;;;;;6.32;2.38;;;8.90;99.90;;;;;;5077800;28;20036;-60
2022/04/06 03:59:21;;;;;;;5.53;2.47;;;8.90;99.90;;;;;;5081507;28;20107;-60
2022/04/06 04:01:46;;;;;;;22.05;2.30;;;8.90;99.90;;;;;;5073947;28;20471;-60
2022/04/06 04:04:12;;;;;;;13.43;3.25;;;8.90;99.90;;;;;;5080853;28;20045;-60
2022/04/06 04:06:37;;;;;;;8.50;2.75;;;8.90;99.90;;;;;;5081035;28;20025;-60
2022/04/06 04:09:03;;;;;;;7.60;2.80;;;8.90;99.90;;;;;;5092517;28;20081;-60
2022/04/06 04:11:30;;;;;;;7.63;2.85;;;8.90;99.90;;;;;;5085897;28;20036;-59
2022/04/06 04:13:56;;;;;;;4.22;1.80;;;8.90;99.90;;;;;;5076004;28;20020;-60
2022/04/06 04:16:21;;;;;;;4.18;1.80;;;8.90;99.90;;;;;;5088619;28;20055;-62
2022/04/06 04:18:47;;;;;;;6.93;2.75;;;8.90;99.90;;;;;;5086074;28;20541;-60
2022/04/06 04:21:31;;;;;;;3.72;1.55;;;8.90;99.90;;;;;;5083228;28;20031;-62
2022/04/06 04:23:57;;;;;;;5.75;2.13;;;8.90;99.90;;;;;;5072752;28;20142;-59
2022/04/06 04:26:23;;;;;;;5.97;1.95;;;8.90;99.90;;;;;;5085610;28;20115;-59
2022/04/06 04:28:48;;;;;;;3.63;1.77;;;8.90;99.90;;;;;;5078499;28;20033;-60
2022/04/06 04:31:14;;;;;;;7.45;2.10;;;8.90;99.90;;;;;;5089574;28;20081;-60
2022/04/06 04:33:39;;;;;;;6.32;2.03;;;8.80;99.90;;;;;;5077651;28;20021;-60
2022/04/06 04:36:05;;;;;;;5.35;2.22;;;8.80;99.90;;;;;;5089344;28;21491;-60
2022/04/06 04:38:31;;;;;;;5.18;1.98;;;8.80;99.90;;;;;;5089981;28;20028;-60
2022/04/06 04:40:57;;;;;;;4.63;2.13;;;8.80;99.90;;;;;;5091720;28;20537;-62
2022/04/06 04:43:22;;;;;;;8.50;2.63;;;8.80;99.90;;;;;;5075645;28;20363;-60
2022/04/06 04:45:49;;;;;;;4.25;1.85;;;8.80;99.90;;;;;;5073301;28;20050;-60
2022/04/06 04:48:14;;;;;;;5.20;2.22;;;8.80;99.90;;;;;;5084623;28;20040;-60
2022/04/06 04:50:40;;;;;;;9.38;1.52;;;8.80;99.90;;;;;;5060905;28;20503;-60
2022/04/06 04:53:06;;;;;;;5.28;2.17;;;8.80;99.90;;;;;;5085609;28;20039;-60
2022/04/06 04:55:33;;;;;;;3.58;1.77;;;8.70;99.90;;;;;;5073598;28;20048;-60
2022/04/06 04:57:59;;;;;;;5.75;2.25;;;8.80;99.90;;;;;;5070631;28;20043;-60
2022/04/06 05:00:25;;;;;;;3.90;1.42;;;8.70;99.90;;;;;;5060601;28;20016;-60
2022/04/06 05:02:50;;;;;;;14.70;3.33;;;8.70;99.90;;;;;;5086664;28;20020;-60
2022/04/06 05:05:16;;;;;;;4.70;1.95;;;8.70;99.90;;;;;;5086102;28;20078;-61
2022/04/06 05:07:41;;;;;;;3.30;1.50;;;8.70;99.90;;;;;;5082217;28;20529;-61
2022/04/06 05:10:08;;;;;;;5.93;1.98;;;8.70;99.90;;;;;;5076070;28;20024;-61
2022/04/06 05:12:34;;;;;;;13.20;2.75;;;8.70;99.90;;;;;;5086855;28;20049;-61
2022/04/06 05:15:00;;;;;;;11.60;1.42;;;8.70;99.90;;;;;;5088656;28;20113;-62
2022/04/06 05:17:26;;;;;;;7.60;1.73;;;8.70;99.90;;;;;;5089815;28;20031;-60
2022/04/06 05:19:53;;;;;;;4.53;1.98;;;8.60;99.90;;;;;;5092076;28;20110;-60
2022/04/06 05:22:19;;;;;;;5.55;2.40;;;8.60;99.90;;;;;;5091069;28;20164;-60
2022/04/06 05:24:44;;;;;;;2.47;1.30;;;8.60;99.90;;;;;;5092236;28;20096;-61
2022/04/06 05:27:10;;;;;;;7.10;2.13;;;8.70;99.90;;;;;;5090005;28;20067;-61
2022/04/06 05:29:35;;;;;;;10.93;2.03;;;8.70;99.90;;;;;;5091833;28;20476;-61
2022/04/06 05:32:02;;;;;;;7.40;2.30;;;8.70;99.90;;;;;;5091817;28;20031;-61
2022/04/06 05:34:28;;;;;;;4.43;1.52;;;8.80;99.90;;;;;;5091297;28;20055;-61
2022/04/06 05:36:54;;;;;;;6.20;2.05;;;8.80;99.90;;;;;;5083136;28;20129;-61
2022/04/06 05:39:20;;;;;;;2.15;1.00;;;8.90;99.90;;;;;;5091734;28;20498;-61
2022/04/06 05:41:45;;;;;;;2.92;1.33;;;8.90;99.90;;;;;;5090375;28;20395;-61
2022/04/06 05:44:11;;;;;;;5.93;2.22;;;9.00;99.90;;;;;;5090934;28;20031;-61
2022/04/06 05:46:36;;;;;;;2.00;1.20;;;9.00;99.90;;;;;;5089765;28;20032;-60
2022/04/06 05:49:02;;;;;;;3.97;1.30;;;9.00;99.90;;;;;;5090103;28;20028;-60
2022/04/06 05:51:27;;;;;;;6.13;2.65;;;9.00;99.90;;;;;;5067273;28;20024;-60
2022/04/06 05:53:53;;;;;;;7.43;1.80;;;9.00;99.90;;;;;;5073681;28;20017;-60
2022/04/06 05:56:19;;;;;;;5.03;1.73;;;9.00;99.90;;;;;;5072051;28;20028;-61
2022/04/06 05:58:44;;;;;;;4.90;1.90;;;9.00;99.90;;;;;;5089941;28;20028;-61
2022/04/06 06:01:10;;;;;;;4.25;1.73;;;9.00;99.90;;;;;;5081766;28;20028;-60
2022/04/06 06:03:36;;;;;;;5.45;1.17;;;9.00;99.90;;;;;;5082384;28;20418;-61
2022/04/06 06:06:02;;;;;;;3.17;1.45;;;9.10;99.90;;;;;;5092175;28;20585;-61
2022/04/06 06:08:27;;;;;;;6.63;1.98;;;9.00;99.90;;;;;;5086237;28;20468;-61
2022/04/06 06:10:53;;;;;;;3.53;1.15;;;9.00;99.90;;;;;;5087117;28;20027;-60
2022/04/06 06:13:18;;;;;;;4.40;1.55;;;9.10;99.90;;;;;;5083396;28;20460;-61
2022/04/06 06:15:44;;;;;;;3.80;1.33;;;9.10;99.90;;;;;;5087203;28;20016;-60
2022/04/06 06:18:12;;;;;;;3.00;1.52;;;9.10;99.90;;;;;;5075940;28;20040;-61
2022/04/06 06:20:38;;;;;;;3.97;1.58;;;9.10;99.90;;;;;;5085634;28;20020;-61
2022/04/06 06:23:03;;;;;;;4.47;1.67;;;9.10;99.90;;;;;;5089018;28;20047;-61
2022/04/06 06:25:29;;;;;;;6.95;1.75;;;9.20;99.90;;;;;;5083721;28;20040;-61
2022/04/06 06:27:54;;;;;;;3.90;1.65;;;9.20;99.90;;;;;;5077460;28;20016;-61
2022/04/06 06:30:20;;;;;;;6.80;1.95;;;9.10;99.90;;;;;;5086622;28;20552;-61
2022/04/06 06:32:45;;;;;;;2.00;0.98;;;9.20;99.90;;;;;;5088930;28;20020;-61
2022/04/06 06:35:12;;;;;;;5.85;1.90;;;9.20;99.90;;;;;;5090586;28;20142;-61
2022/04/06 06:37:46;;;;;;;6.40;1.85;;;9.20;99.90;;;;;;5090953;28;20462;-61
2022/04/06 06:40:11;;;;;;;3.92;1.75;;;9.20;99.90;;;;;;5088784;28;20423;-61
2022/04/06 06:42:37;;;;;;;4.05;1.90;;;9.20;99.90;;;;;;5084383;28;20159;-61
2022/04/06 06:45:03;;;;;;;6.20;2.15;;;9.20;99.90;;;;;;5087878;28;20464;-60
2022/04/06 06:47:28;;;;;;;3.08;1.27;;;9.20;99.90;;;;;;5090607;28;20040;-61
2022/04/06 06:49:54;;;;;;;5.03;1.80;;;9.30;99.90;;;;;;5089240;28;20039;-60
2022/04/06 06:52:19;;;;;;;5.75;1.67;;;9.30;99.90;;;;;;5085423;28;20036;-60
2022/04/06 06:54:45;;;;;;;6.93;2.00;;;9.30;99.90;;;;;;5084418;28;20531;-60
2022/04/06 06:57:11;;;;;;;6.88;1.73;;;9.30;99.90;;;;;;5078363;28;20070;-61
2022/04/06 06:59:37;;;;;;;9.73;1.77;;;9.30;99.90;;;;;;5086379;28;20024;-60
2022/04/06 07:02:03;;;;;;;3.30;1.50;;;9.30;99.90;;;;;;5088435;28;20023;-61
2022/04/06 07:04:29;;;;;;;2.05;1.10;;;9.30;99.90;;;;;;5088820;28;20475;-60
2022/04/06 07:06:55;;;;;;;8.32;2.38;;;9.30;99.90;;;;;;5083906;28;20027;-60
2022/04/06 07:09:20;;;;;;;3.13;1.40;;;9.20;99.90;;;;;;5077268;28;20071;-60
2022/04/06 07:11:46;;;;;;;5.90;1.63;;;9.20;99.90;;;;;;5091311;28;20444;-61
2022/04/06 07:14:11;;;;;;;4.05;1.50;;;9.30;99.90;;;;;;5089874;28;20459;-61
2022/04/06 07:16:37;;;;;;;5.63;2.25;;;9.30;99.90;;;;;;5065426;28;20032;-61
2022/04/06 07:19:03;;;;;;;3.50;1.50;;;9.40;99.90;;;;;;5091058;28;20031;-61
2022/04/06 07:21:28;;;;;;;3.97;1.30;;;9.30;99.90;;;;;;5071906;28;20032;-61
2022/04/06 07:23:55;;;;;;;1.92;0.98;;;9.30;99.90;;;;;;5089953;28;20364;-60
2022/04/06 07:26:21;;;;;;;1.70;1.02;;;9.30;99.90;;;;;;5088527;28;20171;-60
2022/04/06 07:28:47;;;;;;;9.88;2.10;;;9.40;99.90;;;;;;5088997;28;20506;-60
2022/04/06 07:31:13;;;;;;;4.47;1.45;;;9.30;99.90;;;;;;5089291;28;20024;-60
2022/04/06 07:33:40;;;;;;;5.25;1.85;;;9.30;99.90;;;;;;5090205;28;20090;-61
2022/04/06 07:36:06;;;;;;;3.40;1.67;;;9.40;99.90;;;;;;5090436;28;20016;-61
2022/04/06 07:38:32;;;;;;;2.78;1.30;;;9.40;99.90;;;;;;5089510;28;20044;-60
2022/04/06 07:40:58;;;;;;;1.92;1.05;;;9.30;99.90;;;;;;5087052;28;20021;-60
2022/04/06 07:43:24;;;;;;;4.00;1.75;;;9.30;99.90;;;;;;5086463;28;20391;-60
2022/04/06 07:45:50;;;;;;;2.83;1.42;;;9.30;99.90;;;;;;5089523;28;20191;-61
2022/04/06 07:48:15;;;;;;;2.03;1.20;;;9.40;99.90;;;;;;5088529;28;20024;-60
2022/04/06 07:50:41;;;;;;;4.40;1.65;;;9.50;99.90;;;;;;5083661;28;20503;-61
2022/04/06 07:53:07;;;;;;;14.38;2.67;;;9.40;99.90;;;;;;5089645;28;20138;-60
2022/04/06 07:55:33;;;;;;;4.15;1.67;;;9.40;99.90;;;;;;5077785;28;20487;-61
2022/04/06 07:57:59;;;;;;;2.60;1.17;;;9.30;99.90;;;;;;5082652;28;20568;-60
2022/04/06 08:00:25;;;;;;;3.83;1.63;;;9.30;99.90;;;;;;5083481;28;20044;-61
2022/04/06 08:02:51;;;;;;;5.05;1.70;;;9.30;99.90;;;;;;5089356;28;20106;-61
2022/04/06 08:05:18;;;;;;;5.85;2.30;;;9.10;99.90;;;;;;5078415;28;20543;-61
2022/04/06 08:07:45;;;;;;;7.78;1.92;;;9.10;99.90;;;;;;5090518;28;20030;-61
2022/04/06 08:10:13;;;;;;;6.95;2.22;;;9.10;99.90;;;;;;5086463;28;20097;-60
2022/04/06 08:12:39;;;;;;;1.65;1.10;;;9.10;99.90;;;;;;5082915;28;20452;-60
2022/04/06 08:15:06;;;;;;;7.15;2.00;;;9.10;99.90;;;;;;5084853;28;20027;-61
2022/04/06 08:17:33;;;;;;;7.20;1.73;;;9.20;99.90;;;;;;5077444;28;20032;-61
2022/04/06 08:19:58;;;;;;;5.30;1.23;;;9.30;99.90;;;;;;5077415;28;20050;-61
2022/04/06 08:22:24;;;;;;;2.88;1.20;;;9.30;99.90;;;;;;5074996;28;20060;-61
2022/04/06 08:24:49;;;;;;;4.18;1.70;;;9.30;99.90;;;;;;5088855;28;20031;-61
2022/04/06 08:27:15;;;;;;;3.28;1.30;;;9.40;99.90;;;;;;5087497;28;20117;-60
2022/04/06 08:29:41;;;;;;;5.70;1.83;;;9.30;99.90;;;;;;5069705;28;20028;-61
2022/04/06 08:32:06;;;;;;;3.63;1.60;;;9.30;99.90;;;;;;5071527;28;20111;-61
2022/04/06 08:34:32;;;;;;;4.97;1.80;;;9.30;99.90;;;;;;5089402;28;20032;-61
2022/04/06 08:36:58;;;;;;;4.25;1.60;;;9.30;99.90;;;;;;5090582;28;20430;-60
2022/04/06 08:39:23;;;;;;;4.05;1.48;;;9.20;99.90;;;;;;5089079;28;20040;-61
2022/04/06 08:41:49;;;;;;;6.38;1.63;;;9.20;99.90;;;;;;5089078;28;20020;-61
2022/04/06 08:44:16;;;;;;;3.65;1.55;;;9.10;99.90;;;;;;5089001;28;20028;-60
2022/04/06 08:46:45;;;;;;;5.38;2.03;;;9.10;99.90;;;;;;5089543;28;20111;-61
2022/04/06 08:49:12;;;;;;;3.22;1.65;;;9.00;99.90;;;;;;5090281;28;20032;-60
2022/04/06 08:51:40;;;;;;;10.40;1.98;;;9.00;99.90;;;;;;5072529;28;20364;-61
2022/04/06 08:54:05;;;;;;;7.07;2.05;;;9.00;99.90;;;;;;5086306;28;20104;-60
2022/04/06 08:56:31;;;;;;;3.72;1.45;;;9.10;99.90;;;;;;5073726;28;20550;-60
2022/04/06 08:58:58;;;;;;;3.67;1.55;;;9.30;99.90;;;;;;5074620;28;20159;-60
2022/04/06 09:01:24;;;;;;;5.13;1.70;;;9.30;99.90;;;;;;5081418;28;20090;-60
2022/04/06 09:03:49;;;;;;;5.70;2.03;;;9.30;99.90;;;;;;5083527;28;20498;-61
2022/04/06 09:06:16;;;;;;;3.58;1.65;;;9.30;99.90;;;;;;5083618;28;20069;-60
2022/04/06 09:08:44;;;;;;;3.88;1.88;;;9.40;99.90;;;;;;5086399;28;20487;-60
2022/04/06 09:11:14;;;;;;;5.75;1.60;;;9.40;99.90;;;;;;5077832;28;20017;-61
2022/04/06 09:13:42;;;;;;;3.63;1.75;;;9.50;99.90;;;;;;5076343;28;20040;-59
2022/04/06 09:16:09;;;;;;;2.30;1.42;;;9.60;99.90;;;;;;5077376;28;20095;-60
2022/04/06 09:18:44;;;;;;;2.92;1.40;;;9.60;99.90;;;;;;5082804;28;20028;-60
2022/04/06 09:21:11;;;;;;;1.95;1.15;;;9.50;99.90;;;;;;5079491;28;20032;-61
2022/04/06 09:23:37;;;;;;;4.38;1.70;;;9.50;99.90;;;;;;5086673;28;20020;-60
2022/04/06 09:26:05;;;;;;;7.20;1.45;;;9.60;99.90;;;;;;5084953;28;20075;-61
2022/04/06 09:28:31;;;;;;;4.63;1.52;;;9.60;99.90;;;;;;5085793;28;20051;-60
2022/04/06 09:30:57;;;;;;;3.03;1.23;;;9.70;99.90;;;;;;5084176;28;20027;-60
2022/04/06 09:33:26;;;;;;;3.47;1.05;;;9.80;99.90;;;;;;5084172;28;20017;-60
2022/04/06 09:35:52;;;;;;;3.90;1.40;;;10.00;99.90;;;;;;5079264;28;20375;-61
2022/04/06 09:38:22;;;;;;;2.92;1.10;;;10.20;99.90;;;;;;5080962;28;20107;-60
2022/04/06 09:40:51;;;;;;;8.88;1.77;;;10.30;99.90;;;;;;5083885;28;20494;-61
2022/04/06 09:43:46;;;;;;;5.15;1.55;;;10.60;99.90;;;;;;5084554;28;20048;-60
2022/04/06 09:49:10;;;;;;;6.75;1.77;;;10.70;99.90;;;;;;5082291;28;20078;-61
2022/04/06 09:51:37;;;;;;;4.85;1.23;;;10.90;99.90;;;;;;5059436;28;20028;-61
2022/04/06 09:54:09;;;;;;;2.28;0.95;;;11.10;99.90;;;;;;5060708;28;20024;-60
2022/04/06 09:56:36;;;;;;;8.38;1.30;;;11.00;99.90;;;;;;5083633;28;20036;-60
2022/04/06 09:59:03;;;;;;;2.47;1.30;;;11.80;99.90;;;;;;5081659;28;20074;-60
2022/04/06 10:01:45;;;;;;;1.23;0.77;;;11.10;99.90;;;;;;5078359;28;20030;-60
2022/04/06 10:04:12;;;;;;;3.45;1.25;;;11.00;99.90;;;;;;5077735;28;20024;-60
2022/04/06 10:06:40;;;;;;;3.78;1.25;;;10.70;99.90;;;;;;5059651;28;20024;-60
2022/04/06 10:09:11;;;;;;;2.03;1.00;;;10.70;99.90;;;;;;5080451;28;20524;-60
2022/04/06 10:11:39;;;;;;;7.47;1.23;;;10.40;99.90;;;;;;5070728;28;20101;-60
2022/04/06 10:14:08;;;;;;;3.28;1.23;;;10.30;99.90;;;;;;5076849;28;20020;-60
2022/04/06 10:16:36;;;;;;;3.15;1.23;;;10.40;99.90;;;;;;5074547;28;20089;-60
2022/04/06 10:19:07;;;;;;;5.40;1.50;;;10.40;99.90;;;;;;5055296;28;20035;-60
2022/04/06 10:22:16;;;;;;;5.68;1.17;;;10.30;99.90;;;;;;5072842;28;20052;-61
2022/04/06 10:25:10;;;;;;;4.20;0.93;;;10.20;99.90;;;;;;5058217;28;20032;-61
2022/04/06 10:27:41;;;;;;;3.53;1.40;;;10.40;99.90;;;;;;5078833;28;20496;-61
2022/04/06 10:30:10;;;;;;;1.70;0.90;;;10.40;99.90;;;;;;5082573;28;20074;-60
2022/04/06 10:32:41;;;;;;;4.43;1.63;;;10.50;99.90;;;;;;5084913;28;20028;-60
2022/04/06 10:35:30;;;;;;;2.47;1.10;;;10.10;99.90;;;;;;5081330;28;20048;-60
2022/04/06 10:37:56;;;;;;;3.05;1.38;;;10.10;99.90;;;;;;5077194;28;20107;-60
2022/04/06 10:40:22;;;;;;;5.22;1.35;;;10.20;99.90;;;;;;5076012;28;20124;-60
2022/04/06 10:42:48;;;;;;;3.92;1.55;;;10.20;99.90;;;;;;5088022;28;20032;-61
2022/04/06 10:45:38;;;;;;;3.75;1.40;;;10.10;99.90;;;;;;5082351;28;20637;-61
2022/04/06 10:48:18;;;;;;;4.53;1.42;;;10.30;99.90;;;;;;5071524;28;20044;-60
2022/04/06 10:50:46;;;;;;;4.03;1.70;;;10.20;99.90;;;;;;5079494;28;20102;-60
2022/04/06 10:53:21;;;;;;;2.80;1.13;;;10.20;99.90;;;;;;5079807;28;20052;-61
2022/04/06 10:55:55;;;;;;;1.52;0.93;;;10.20;99.90;;;;;;5080391;28;20025;-60
2022/04/06 10:58:23;;;;;;;5.70;1.35;;;10.30;99.90;;;;;;5077165;28;20095;-60
2022/04/06 11:01:16;;;;;;;3.88;1.52;;;10.30;99.90;;;;;;5082407;28;20025;-60
2022/04/06 11:04:04;;;;;;;2.40;1.15;;;10.60;99.90;;;;;;5071096;28;20043;-60
2022/04/06 11:06:48;;;;;;;5.50;1.48;;;10.70;99.90;;;;;;5079999;28;20028;-61
2022/04/06 11:12:33;;;;;;;4.72;1.40;;;10.70;99.90;;;;;;5083358;28;20088;-60
2022/04/06 11:14:59;;;;;;;5.07;1.83;;;10.60;99.90;;;;;;5081157;28;20051;-60
2022/04/06 11:17:42;;;;;;;3.92;1.42;;;10.80;99.90;;;;;;5085790;28;20361;-60
2022/04/06 11:20:13;;;;;;;3.63;1.33;;;10.70;99.90;;;;;;5078537;28;20025;-60
2022/04/06 11:22:44;;;;;;;11.45;1.88;;;10.60;99.90;;;;;;5082523;28;20025;-61
2022/04/06 11:25:14;;;;;;;3.97;1.80;;;10.60;99.90;;;;;;5084368;28;20103;-60
2022/04/06 11:27:42;;;;;;;6.15;1.63;;;10.70;99.90;;;;;;5077994;28;20041;-60
2022/04/06 11:30:18;;;;;;;12.25;1.83;;;10.70;99.90;;;;;;5067404;28;20031;-60
2022/04/06 11:32:58;;;;;;;4.15;1.52;;;10.50;99.90;;;;;;5068863;28;20032;-61
2022/04/06 11:35:28;;;;;;;2.97;1.37;;;10.50;99.90;;;;;;5077601;28;20020;-61
2022/04/06 11:37:54;;;;;;;3.88;1.38;;;10.50;99.90;;;;;;5068020;28;20357;-60
2022/04/06 11:40:25;;;;;;;2.72;1.20;;;10.40;99.90;;;;;;5087396;28;20031;-60
2022/04/06 11:42:53;;;;;;;3.17;1.15;;;10.50;99.90;;;;;;5076724;28;20061;-61
2022/04/06 11:45:23;;;;;;;5.38;1.60;;;10.50;99.90;;;;;;5080273;28;20031;-60
2022/04/06 11:48:00;;;;;;;2.05;1.13;;;10.60;99.90;;;;;;5081563;28;20119;-60
2022/04/06 11:50:31;;;;;;;6.85;1.85;;;10.70;99.90;;;;;;5081067;28;20129;-59
2022/04/06 11:53:04;;;;;;;;;;;10.70;99.90;;;;;;5077813;28;20020;-60
2022/04/06 11:55:42;;;;;;;7.35;2.10;;;10.90;99.90;;;;;;5068222;28;19913;-60
2022/04/06 11:58:08;;;;;;;5.63;1.92;;;10.90;99.90;;;;;;5077816;28;20032;-60
2022/04/06 12:00:35;;;;;;;4.35;1.90;;;10.90;99.90;;;;;;5085047;28;20028;-60
2022/04/06 12:03:02;;;;;;;7.30;2.17;;;10.60;99.90;;;;;;5088008;28;20028;-61
2022/04/06 12:05:28;;;;;;;6.95;2.40;;;10.50;99.90;;;;;;5074864;28;20025;-60
2022/04/06 12:08:15;;;;;;;4.68;2.00;;;10.30;99.90;;;;;;5090141;28;20551;-60
2022/04/06 12:10:51;;;;;;;6.95;2.75;;;10.40;99.90;;;;;;5067231;28;20039;-61
2022/04/06 12:13:18;;;;;;;3.75;1.90;;;10.50;99.90;;;;;;5077195;28;20016;-60
2022/04/06 12:15:46;;;;;;;2.47;1.20;;;10.40;99.90;;;;;;5078584;28;20032;-60
2022/04/06 12:18:12;;;;;;;8.93;2.38;;;10.30;99.90;;;;;;5062082;28;20067;-60
2022/04/06 12:20:37;;;;;;;1.75;1.00;;;10.20;99.90;;;;;;5084023;28;20037;-60
2022/04/06 12:23:05;;;;;;;5.00;1.60;;;10.30;99.90;;;;;;5081930;28;20035;-61
2022/04/06 12:25:33;;;;;;;8.27;2.17;;;10.30;99.90;;;;;;5077120;28;20044;-60
2022/04/06 12:28:23;;;;;;;4.22;1.80;;;10.40;99.90;;;;;;5081396;28;20048;-60
2022/04/06 12:30:58;;;;;;;5.20;1.83;;;10.40;99.90;;;;;;5081214;28;20020;-60
2022/04/06 12:33:51;;;;;;;4.32;2.00;;;10.30;99.90;;;;;;5082245;28;20028;-59
2022/04/06 12:36:30;;;;;;;2.17;1.00;;;10.40;99.90;;;;;;5085017;28;20028;-59
2022/04/06 12:39:15;;;;;;;5.40;1.77;;;10.30;99.90;;;;;;5081550;28;20492;-60
2022/04/06 12:42:02;;;;;;;3.65;1.42;;;10.00;99.90;;;;;;5068411;28;20471;-59
2022/04/06 12:44:29;;;;;;;4.75;1.48;;;10.10;99.90;;;;;;5081300;28;20036;-60
2022/04/06 12:46:55;;;;;;;3.97;1.58;;;10.20;99.90;;;;;;5081569;28;20024;-59
2022/04/06 12:49:32;;;;;;;2.85;1.67;;;10.10;99.90;;;;;;5079712;28;20028;-58
2022/04/06 12:52:06;;;;;;;3.30;1.48;;;10.30;99.90;;;;;;5081793;28;20032;-62
2022/04/06 12:54:34;;;;;;;7.70;2.05;;;10.20;99.90;;;;;;5085258;28;20031;-57
2022/04/06 12:57:13;;;;;;;5.32;2.08;;;10.20;99.90;;;;;;5088265;28;20063;-60
2022/04/06 12:59:45;;;;;;;3.55;1.63;;;10.10;99.90;;;;;;5080693;28;20429;-60
2022/04/06 13:02:22;;;;;;;6.75;2.75;;;10.10;99.90;;;;;;5084816;28;20019;-58
2022/04/06 13:04:48;;;;;;;4.63;2.28;;;10.30;99.90;;;;;;5063676;28;20035;-59
2022/04/06 13:07:14;;;;;;;5.07;1.70;;;10.30;99.90;;;;;;5084139;28;20471;-60
2022/04/06 13:09:53;;;;;;;5.68;2.47;;;10.30;99.90;;;;;;5079589;28;20089;-60
2022/04/06 13:12:21;;;;;;;7.25;2.60;;;10.30;99.90;;;;;;5085063;28;20031;-58
2022/04/06 13:14:47;;;;;;;2.88;1.48;;;10.10;99.90;;;;;;5080071;28;20477;-58
2022/04/06 13:17:12;;;;;;;5.78;1.90;;;10.30;99.90;;;;;;5083526;28;20049;-58
2022/04/06 13:19:38;;;;;;;4.43;1.88;;;10.40;99.90;;;;;;5070558;28;20035;-58
2022/04/06 13:22:05;;;;;;;6.45;2.33;;;10.40;99.90;;;;;;5082668;28;20033;-58